Dauby — WDE9673 — position and weather

sailwx.info

Track history (hours):
 
Tides and Currents Weather Stations Pressure Air Temp Water Temp Dewpoint Dewpoint Depression Visibility Wind Speed Wind Dir Waves Ship Positions

Dauby

Owner: S D S LUMBER CO, BIRGEN, WA. More information available from US FCC via Universal Licensing System and Coast Guard Vessel Documentation Center.

Last reported at 2018-Oct-23 20:10 UTC. Time now 2018-Oct-23 23:14 UTC.
Position N 45°37' W 122°01'.

Length 15 m; draft 2.8 m.

MMSI: 338059832.

Date/timePositionNaut miles runAvg speedWind from/ knotsBaromVisibWave heightAir tempDewpointWater temp
2018-Oct-23 20:10N 45°37' W 122°01'1 7.3
2018-Oct-23 20:03N 45°37' W 122°02'0 8.5
2018-Oct-23 20:00N 45°36' W 122°03'5 8.2
2018-Oct-23 19:27N 45°35' W 122°09'3 8.2
2018-Oct-23 19:04N 45°34' W 122°13'0 8.2
2018-Oct-23 19:00N 45°33' W 122°14'4 8.1
2018-Oct-23 18:31N 45°33' W 122°19'3 7.3
2018-Oct-23 18:03N 45°34' W 122°24'0 6.8
2018-Oct-23 18:00N 45°34' W 122°24'4 7.5
2018-Oct-23 17:30N 45°35' W 122°29'3 7.6
2018-Oct-23 17:03N 45°36' W 122°34'0 7.2
2018-Oct-23 17:01N 45°36' W 122°34'4 7.7
2018-Oct-23 16:30N 45°37' W 122°40'4 8.4
2018-Oct-23 16:04N 45°39' W 122°44'0 7.6
2018-Oct-23 16:01N 45°39' W 122°45'0 0.6
2018-Oct-23 15:30N 45°39' W 122°45'0 0.0
2018-Oct-23 15:03N 45°39' W 122°45'0 0.0
2018-Oct-23 15:00N 45°39' W 122°45'0 0.0
2018-Oct-23 14:01N 45°39' W 122°45'0 0.0
2018-Oct-23 13:31N 45°39' W 122°45'0 0.0
2018-Oct-23 13:00N 45°39' W 122°45'0 0.0
2018-Oct-23 12:31N 45°39' W 122°45'0 0.0
2018-Oct-23 12:04N 45°39' W 122°45'0 0.0
2018-Oct-23 11:45N 45°39' W 122°45'0 0.0
2018-Oct-23 11:31N 45°39' W 122°45'0 0.0
2018-Oct-23 11:04N 45°39' W 122°45'0 0.0
2018-Oct-23 11:01N 45°39' W 122°45'0 1.0
2018-Oct-23 10:30N 45°39' W 122°46'3 6.5
2018-Oct-23 10:03N 45°42' W 122°46'0 7.5
2018-Oct-23 10:01N 45°43' W 122°46'4 7.7
2018-Oct-23 09:31N 45°47' W 122°46'5 7.7
2018-Oct-23 08:50N 45°52' W 122°47'3 8.0
2018-Oct-23 08:31N 45°54' W 122°48'4 8.2
2018-Oct-23 08:04N 45°58' W 122°49'0 8.9
2018-Oct-23 08:00N 45°58' W 122°50'4 8.2
2018-Oct-23 07:30N 46°02' W 122°52'4 8.0
2018-Oct-23 07:03N 46°05' W 122°54'1 7.9
2018-Oct-23 06:55N 46°06' W 122°56'0 1.2
2018-Oct-23 06:30N 46°06' W 122°55'0 0.0
2018-Oct-23 06:04N 46°06' W 122°55'0 0.0
2018-Oct-23 06:01N 46°06' W 122°55'1 1.2
2018-Oct-23 05:31N 46°06' W 122°56'2 4.0
2018-Oct-23 05:04N 46°07' W 122°58'0 0.0
2018-Oct-23 05:01N 46°07' W 122°58'1 2.7
2018-Oct-23 04:30N 46°08' W 122°60'3 5.9
2018-Oct-23 04:03N 46°09' W 123°03'0 5.9
2018-Oct-23 04:01N 46°09' W 123°03'3 6.2
2018-Oct-23 03:30N 46°11' W 123°07'3 5.7
2018-Oct-23 03:03N 46°11' W 123°11'0 6.4
2018-Oct-23 03:00N 46°11' W 123°11'3 6.0
2018-Oct-23 02:30N 46°09' W 123°15'3 6.1
2018-Oct-23 02:00N 46°09' W 123°20'3 6.3
2018-Oct-23 01:31N 46°09' W 123°24'3 6.0
2018-Oct-23 01:02N 46°12' W 123°26'0 6.7
2018-Oct-23 01:01N 46°12' W 123°26'3 6.4
2018-Oct-23 00:31N 46°15' W 123°27'2 5.5
2018-Oct-23 00:04N 46°16' W 123°30'0 6.2
2018-Oct-23 00:01N 46°16' W 123°30'3 6.8
2018-Oct-22 23:30N 46°15' W 123°35'3 6.3
2018-Oct-22 23:04N 46°16' W 123°39'0 6.1
2018-Oct-22 23:01N 46°15' W 123°40'3 6.8
2018-Oct-22 22:31N 46°14' W 123°44'3 6.5
2018-Oct-22 22:03N 46°12' W 123°48'0 6.6
2018-Oct-22 22:00N 46°12' W 123°48'3 6.5
2018-Oct-22 21:31N 46°12' W 123°53'2 4.6
2018-Oct-22 21:04N 46°12' W 123°56'0 0.1
2018-Oct-22 21:01N 46°12' W 123°56'0 0.0
2018-Oct-22 20:31N 46°12' W 123°56'0 0.1
2018-Oct-22 20:04N 46°11' W 123°55'0 0.9
2018-Oct-22 20:01N 46°11' W 123°55'3 5.1
2018-Oct-22 19:30N 46°12' W 123°52'3 5.7
2018-Oct-22 19:03N 46°12' W 123°48'0 5.9
2018-Oct-22 19:01N 46°12' W 123°48'3 6.9
2018-Oct-22 18:31N 46°14' W 123°43'3 7.1
2018-Oct-22 18:04N 46°15' W 123°39'0 7.8
2018-Oct-22 18:01N 46°16' W 123°39'4 7.5
2018-Oct-22 17:30N 46°15' W 123°33'5 6.7
2018-Oct-22 16:49N 46°15' W 123°27'2 6.5
2018-Oct-22 16:31N 46°13' W 123°25'3 5.6
2018-Oct-22 16:03N 46°11' W 123°25'0 4.5
2018-Oct-22 16:01N 46°10' W 123°25'1 1.9
2018-Oct-22 15:30N 46°10' W 123°24'2 4.8
2018-Oct-22 15:04N 46°09' W 123°22'0 8.5
2018-Oct-22 15:01N 46°09' W 123°21'4 8.2
2018-Oct-22 14:31N 46°09' W 123°15'6 6.4
2018-Oct-22 13:31N 46°11' W 123°06'3 6.0
2018-Oct-22 13:04N 46°09' W 123°03'2 5.9
2018-Oct-22 12:47N 46°08' W 123°01'2 5.4
2018-Oct-22 12:30N 46°07' W 122°59'2 4.0
2018-Oct-22 12:03N 46°06' W 122°57'0 4.8
2018-Oct-22 12:00N 46°06' W 122°57'1 2.5
2018-Oct-22 11:31N 46°05' W 122°55'0 0.0
2018-Oct-22 11:03N 46°05' W 122°55'0 3.2
2018-Oct-22 11:01N 46°05' W 122°56'0 1.0
2018-Oct-22 10:30N 46°06' W 122°55'0 0.9
2018-Oct-22 10:04N 46°06' W 122°56'0 2.4
2018-Oct-22 10:01N 46°06' W 122°56'0 0.2
2018-Oct-22 09:31N 46°06' W 122°56'0 0.7
2018-Oct-22 09:03N 46°06' W 122°56'0 6.0
2018-Oct-22 09:00N 46°06' W 122°56'0 0.3
2018-Oct-22 08:31N 46°06' W 122°56'0 1.0
2018-Oct-22 08:04N 46°05' W 122°56'0 0.0
2018-Oct-22 08:01N 46°05' W 122°56'0 0.1
2018-Oct-22 07:31N 46°05' W 122°56'1 2.1
2018-Oct-22 06:59N 46°06' W 122°55'0 0.0
2018-Oct-21 00:19N 46°06' W 122°55'1 3.9
2018-Oct-21 00:03N 46°06' W 122°56'0 0.0
2018-Oct-21 00:00N 46°06' W 122°56'2 4.3
2018-Oct-20 23:31N 46°05' W 122°54'4 8.2
2018-Oct-20 23:03N 46°01' W 122°52'0 8.3
2018-Oct-20 23:00N 46°01' W 122°52'4 7.8
2018-Oct-20 22:30N 45°57' W 122°49'3 7.3
2018-Oct-20 22:03N 45°54' W 122°48'0 7.2
2018-Oct-20 22:00N 45°54' W 122°48'4 7.1
2018-Oct-20 21:30N 45°50' W 122°47'3 6.0
2018-Oct-20 21:03N 45°48' W 122°47'0 6.9
2018-Oct-20 21:00N 45°47' W 122°47'3 7.0
2018-Oct-20 20:30N 45°44' W 122°46'3 7.5
2018-Oct-20 20:03N 45°41' W 122°46'0 7.5
2018-Oct-20 20:00N 45°40' W 122°46'4 7.9
2018-Oct-20 19:29N 45°38' W 122°42'2 5.6
2018-Oct-20 19:03N 45°37' W 122°39'0 8.9
2018-Oct-20 19:00N 45°36' W 122°38'5 9.2
2018-Oct-20 18:30N 45°35' W 122°32'4 9.0
2018-Oct-20 18:03N 45°34' W 122°26'0 9.0
2018-Oct-20 18:00N 45°34' W 122°25'4 8.3
2018-Oct-20 17:30N 45°33' W 122°20'4 8.4
2018-Oct-20 17:03N 45°33' W 122°14'0 8.3
2018-Oct-20 17:00N 45°33' W 122°14'4 8.8
2018-Oct-20 16:30N 45°35' W 122°08'4 8.3
2018-Oct-20 16:03N 45°36' W 122°03'0 8.3
2018-Oct-20 16:00N 45°37' W 122°02'6 5.0
2018-Oct-20 14:44N 45°39' W 121°54'  
2018-Oct-16 21:22N 45°37' W 122°01'2 4.8
2018-Oct-16 21:01N 45°36' W 122°03'1 6.0
2018-Oct-16 20:55N 45°36' W 122°04'3 5.9
2018-Oct-16 20:29N 45°35' W 122°07'2 5.6
2018-Oct-16 20:03N 45°35' W 122°10'0 5.5
2018-Oct-16 20:00N 45°35' W 122°11'3 5.6
2018-Oct-16 19:30N 45°33' W 122°14'2 5.4
2018-Oct-16 19:03N 45°33' W 122°17'0 5.4
2018-Oct-16 19:00N 45°33' W 122°18'3 5.2
2018-Oct-16 18:30N 45°34' W 122°21'2 4.6
2018-Oct-16 18:03N 45°34' W 122°24'0 5.5
2018-Oct-16 17:58N 45°34' W 122°25'2 5.1
2018-Oct-16 17:29N 45°35' W 122°28'2 5.8
2018-Oct-16 17:03N 45°35' W 122°31'0 6.0
2018-Oct-16 17:00N 45°35' W 122°32'3 5.6
2018-Oct-16 16:30N 45°36' W 122°36'3 6.0
2018-Oct-16 16:03N 45°37' W 122°39'0 5.8
2018-Oct-16 16:00N 45°37' W 122°40'3 5.0
2018-Oct-16 15:30N 45°38' W 122°43'2 5.0
2018-Oct-16 15:03N 45°39' W 122°46'0 6.7
2018-Oct-16 15:00N 45°40' W 122°46'3 6.2
2018-Oct-16 14:31N 45°43' W 122°46'3 6.2
2018-Oct-16 14:00N 45°46' W 122°46'3 6.2
2018-Oct-16 13:30N 45°49' W 122°48'3 5.8
2018-Oct-16 13:00N 45°51' W 122°47'3 5.2
2018-Oct-16 12:29N 45°54' W 122°48'0 0.7
2018-Oct-16 12:03N 45°54' W 122°49'0 1.3
2018-Oct-16 12:00N 45°54' W 122°49'0 0.0
2018-Oct-16 11:30N 45°54' W 122°49'3 6.7
2018-Oct-16 11:03N 45°57' W 122°49'0 7.6
2018-Oct-16 11:00N 45°58' W 122°49'3 5.7
2018-Oct-16 10:30N 46°00' W 122°51'3 7.3
2018-Oct-16 10:03N 46°03' W 122°53'0 7.4
2018-Oct-16 10:00N 46°03' W 122°53'3 6.0
2018-Oct-16 09:30N 46°06' W 122°56'0 0.4
2018-Oct-16 09:03N 46°06' W 122°55'0 0.0
2018-Oct-16 09:00N 46°06' W 122°55'0 0.0
2018-Oct-16 08:30N 46°06' W 122°55'0 0.0
2018-Oct-16 08:03N 46°06' W 122°55'0 0.0
2018-Oct-16 08:00N 46°06' W 122°55'0 0.0
2018-Oct-16 07:25N 46°06' W 122°55'0 0.0
2018-Oct-16 06:59N 46°06' W 122°55'0 0.0
2018-Oct-16 06:30N 46°06' W 122°55'0 0.0
2018-Oct-16 06:03N 46°06' W 122°55'0 0.0
2018-Oct-16 06:00N 46°06' W 122°55'0 0.0
2018-Oct-16 05:30N 46°06' W 122°55'0 0.0
2018-Oct-16 05:03N 46°06' W 122°55'0 0.0
2018-Oct-16 05:00N 46°06' W 122°55'0 1.0
2018-Oct-16 04:30N 46°06' W 122°56'1 1.1
2018-Oct-16 04:03N 46°06' W 122°55'0 5.3
2018-Oct-16 04:00N 46°06' W 122°56'4 7.9
2018-Oct-16 03:28N 46°02' W 122°53'4 9.0
2018-Oct-16 03:03N 45°59' W 122°50'0 8.8
2018-Oct-16 03:00N 45°59' W 122°50'4 8.5
2018-Oct-16 02:30N 45°54' W 122°49'0 0.0
2018-Oct-16 02:01N 45°54' W 122°49'0 0.0
2018-Oct-16 02:00N 45°54' W 122°49'0 0.0
2018-Oct-16 01:30N 45°54' W 122°49'0 0.0
2018-Oct-16 01:03N 45°54' W 122°49'0 0.0
2018-Oct-16 01:00N 45°54' W 122°49'0 0.0
2018-Oct-16 00:30N 45°54' W 122°49'0 0.0
2018-Oct-16 00:03N 45°54' W 122°49'0 0.0
2018-Oct-16 00:00N 45°54' W 122°49'0 0.0
2018-Oct-15 23:30N 45°54' W 122°49'0 0.0
2018-Oct-15 23:03N 45°54' W 122°49'0 0.0
2018-Oct-15 23:00N 45°54' W 122°49'0 0.0
2018-Oct-15 22:30N 45°54' W 122°49'0 0.0
2018-Oct-15 22:03N 45°54' W 122°49'0 0.0
2018-Oct-15 22:00N 45°54' W 122°49'0 0.0
2018-Oct-15 21:30N 45°54' W 122°49'0 0.0
2018-Oct-15 21:03N 45°54' W 122°49'0 0.0
2018-Oct-15 21:00N 45°54' W 122°49'0 0.0
2018-Oct-15 20:30N 45°54' W 122°49'0 0.0
2018-Oct-15 20:03N 45°54' W 122°49'0 0.0
2018-Oct-15 20:00N 45°54' W 122°49'0 0.0
2018-Oct-15 19:30N 45°54' W 122°49'0 0.0
2018-Oct-15 19:03N 45°54' W 122°49'0 0.1
2018-Oct-15 19:00N 45°54' W 122°49'0 0.0
2018-Oct-15 18:30N 45°54' W 122°49'0 0.0
2018-Oct-15 17:38N 45°54' W 122°49'0 0.0
2018-Oct-15 17:17N 45°54' W 122°49'0 0.0
2018-Oct-15 17:03N 45°54' W 122°49'0 0.1
2018-Oct-15 17:00N 45°54' W 122°49'0 0.0
2018-Oct-15 16:30N 45°54' W 122°49'0 0.0
2018-Oct-15 16:03N 45°54' W 122°49'0 0.0
2018-Oct-15 16:00N 45°54' W 122°49'0 0.0
2018-Oct-15 15:30N 45°54' W 122°49'0 0.0
2018-Oct-15 15:03N 45°54' W 122°49'0 0.0
2018-Oct-15 15:00N 45°54' W 122°49'0 0.0
2018-Oct-15 14:30N 45°54' W 122°49'0 0.0
2018-Oct-15 14:00N 45°54' W 122°49'0 0.0
2018-Oct-15 13:24N 45°54' W 122°49'0 0.0
2018-Oct-15 13:00N 45°54' W 122°49'0 0.0
2018-Oct-15 12:30N 45°54' W 122°49'0 0.0
2018-Oct-15 12:03N 45°54' W 122°49'0 0.0
2018-Oct-15 12:00N 45°54' W 122°49'0 0.0
2018-Oct-15 11:30N 45°54' W 122°49'0 0.0
2018-Oct-15 11:03N 45°54' W 122°49'0 0.0
2018-Oct-15 11:00N 45°54' W 122°49'0 0.0
2018-Oct-15 10:30N 45°54' W 122°49'0 0.0
2018-Oct-15 10:03N 45°54' W 122°49'0 1.1
2018-Oct-15 10:00N 45°54' W 122°49'3 6.0
2018-Oct-15 09:30N 45°57' W 122°49'3 7.4
2018-Oct-15 09:03N 46°00' W 122°51'0 7.6
2018-Oct-15 09:00N 46°01' W 122°51'5 7.1
2018-Oct-15 08:22N 46°05' W 122°54'2 6.2
2018-Oct-15 08:04N 46°06' W 122°56'0 0.1
2018-Oct-15 08:00N 46°06' W 122°56'1 2.2
2018-Oct-15 07:30N 46°06' W 122°55'1 0.2
2018-Oct-15 02:14N 46°06' W 122°56'0 1.2
2018-Oct-15 02:03N 46°06' W 122°56'0 2.4
2018-Oct-15 02:00N 46°06' W 122°56'0 0.3
2018-Oct-15 01:30N 46°06' W 122°56'  
Track history (hours):
 
Tides and Currents Weather Stations Pressure Air Temp Water Temp Dewpoint Dewpoint Depression Visibility Wind Speed Wind Dir Waves Ship Positions

Dauby

Owner: S D S LUMBER CO, BIRGEN, WA. More information available from US FCC via Universal Licensing System and Coast Guard Vessel Documentation Center.

Last reported at 2018-Oct-23 20:10 UTC. Time now 2018-Oct-23 23:14 UTC.
Position N 45°37' W 122°01'.

Length 15 m; draft 2.8 m.

MMSI: 338059832.

Date/timePositionNaut miles runAvg speedWind from/ knotsBaromVisibWave heightAir tempDewpointWater temp
2018-Oct-23 20:10N 45°37' W 122°01'1 7.3
2018-Oct-23 20:03N 45°37' W 122°02'0 8.5
2018-Oct-23 20:00N 45°36' W 122°03'5 8.2
2018-Oct-23 19:27N 45°35' W 122°09'3 8.2
2018-Oct-23 19:04N 45°34' W 122°13'0 8.2
2018-Oct-23 19:00N 45°33' W 122°14'4 8.1
2018-Oct-23 18:31N 45°33' W 122°19'3 7.3
2018-Oct-23 18:03N 45°34' W 122°24'0 6.8
2018-Oct-23 18:00N 45°34' W 122°24'4 7.5
2018-Oct-23 17:30N 45°35' W 122°29'3 7.6
2018-Oct-23 17:03N 45°36' W 122°34'0 7.2
2018-Oct-23 17:01N 45°36' W 122°34'4 7.7
2018-Oct-23 16:30N 45°37' W 122°40'4 8.4
2018-Oct-23 16:04N 45°39' W 122°44'0 7.6
2018-Oct-23 16:01N 45°39' W 122°45'0 0.6
2018-Oct-23 15:30N 45°39' W 122°45'0 0.0
2018-Oct-23 15:03N 45°39' W 122°45'0 0.0
2018-Oct-23 15:00N 45°39' W 122°45'0 0.0
2018-Oct-23 14:01N 45°39' W 122°45'0 0.0
2018-Oct-23 13:31N 45°39' W 122°45'0 0.0
2018-Oct-23 13:00N 45°39' W 122°45'0 0.0
2018-Oct-23 12:31N 45°39' W 122°45'0 0.0
2018-Oct-23 12:04N 45°39' W 122°45'0 0.0
2018-Oct-23 11:45N 45°39' W 122°45'0 0.0
2018-Oct-23 11:31N 45°39' W 122°45'0 0.0
2018-Oct-23 11:04N 45°39' W 122°45'0 0.0
2018-Oct-23 11:01N 45°39' W 122°45'0 1.0
2018-Oct-23 10:30N 45°39' W 122°46'3 6.5
2018-Oct-23 10:03N 45°42' W 122°46'0 7.5
2018-Oct-23 10:01N 45°43' W 122°46'4 7.7
2018-Oct-23 09:31N 45°47' W 122°46'5 7.7
2018-Oct-23 08:50N 45°52' W 122°47'3 8.0
2018-Oct-23 08:31N 45°54' W 122°48'4 8.2
2018-Oct-23 08:04N 45°58' W 122°49'0 8.9
2018-Oct-23 08:00N 45°58' W 122°50'4 8.2
2018-Oct-23 07:30N 46°02' W 122°52'4 8.0
2018-Oct-23 07:03N 46°05' W 122°54'1 7.9
2018-Oct-23 06:55N 46°06' W 122°56'0 1.2
2018-Oct-23 06:30N 46°06' W 122°55'0 0.0
2018-Oct-23 06:04N 46°06' W 122°55'0 0.0
2018-Oct-23 06:01N 46°06' W 122°55'1 1.2
2018-Oct-23 05:31N 46°06' W 122°56'2 4.0
2018-Oct-23 05:04N 46°07' W 122°58'0 0.0
2018-Oct-23 05:01N 46°07' W 122°58'1 2.7
2018-Oct-23 04:30N 46°08' W 122°60'3 5.9
2018-Oct-23 04:03N 46°09' W 123°03'0 5.9
2018-Oct-23 04:01N 46°09' W 123°03'3 6.2
2018-Oct-23 03:30N 46°11' W 123°07'3 5.7
2018-Oct-23 03:03N 46°11' W 123°11'0 6.4
2018-Oct-23 03:00N 46°11' W 123°11'3 6.0
2018-Oct-23 02:30N 46°09' W 123°15'3 6.1
2018-Oct-23 02:00N 46°09' W 123°20'3 6.3
2018-Oct-23 01:31N 46°09' W 123°24'3 6.0
2018-Oct-23 01:02N 46°12' W 123°26'0 6.7
2018-Oct-23 01:01N 46°12' W 123°26'3 6.4
2018-Oct-23 00:31N 46°15' W 123°27'2 5.5
2018-Oct-23 00:04N 46°16' W 123°30'0 6.2
2018-Oct-23 00:01N 46°16' W 123°30'3 6.8
2018-Oct-22 23:30N 46°15' W 123°35'3 6.3
2018-Oct-22 23:04N 46°16' W 123°39'0 6.1
2018-Oct-22 23:01N 46°15' W 123°40'3 6.8
2018-Oct-22 22:31N 46°14' W 123°44'3 6.5
2018-Oct-22 22:03N 46°12' W 123°48'0 6.6
2018-Oct-22 22:00N 46°12' W 123°48'3 6.5
2018-Oct-22 21:31N 46°12' W 123°53'2 4.6
2018-Oct-22 21:04N 46°12' W 123°56'0 0.1
2018-Oct-22 21:01N 46°12' W 123°56'0 0.0
2018-Oct-22 20:31N 46°12' W 123°56'0 0.1
2018-Oct-22 20:04N 46°11' W 123°55'0 0.9
2018-Oct-22 20:01N 46°11' W 123°55'3 5.1
2018-Oct-22 19:30N 46°12' W 123°52'3 5.7
2018-Oct-22 19:03N 46°12' W 123°48'0 5.9
2018-Oct-22 19:01N 46°12' W 123°48'3 6.9
2018-Oct-22 18:31N 46°14' W 123°43'3 7.1
2018-Oct-22 18:04N 46°15' W 123°39'0 7.8
2018-Oct-22 18:01N 46°16' W 123°39'4 7.5
2018-Oct-22 17:30N 46°15' W 123°33'5 6.7
2018-Oct-22 16:49N 46°15' W 123°27'2 6.5
2018-Oct-22 16:31N 46°13' W 123°25'3 5.6
2018-Oct-22 16:03N 46°11' W 123°25'0 4.5
2018-Oct-22 16:01N 46°10' W 123°25'1 1.9
2018-Oct-22 15:30N 46°10' W 123°24'2 4.8
2018-Oct-22 15:04N 46°09' W 123°22'0 8.5
2018-Oct-22 15:01N 46°09' W 123°21'4 8.2
2018-Oct-22 14:31N 46°09' W 123°15'6 6.4
2018-Oct-22 13:31N 46°11' W 123°06'3 6.0
2018-Oct-22 13:04N 46°09' W 123°03'2 5.9
2018-Oct-22 12:47N 46°08' W 123°01'2 5.4
2018-Oct-22 12:30N 46°07' W 122°59'2 4.0
2018-Oct-22 12:03N 46°06' W 122°57'0 4.8
2018-Oct-22 12:00N 46°06' W 122°57'1 2.5
2018-Oct-22 11:31N 46°05' W 122°55'0 0.0
2018-Oct-22 11:03N 46°05' W 122°55'0 3.2
2018-Oct-22 11:01N 46°05' W 122°56'0 1.0
2018-Oct-22 10:30N 46°06' W 122°55'0 0.9
2018-Oct-22 10:04N 46°06' W 122°56'0 2.4
2018-Oct-22 10:01N 46°06' W 122°56'0 0.2
2018-Oct-22 09:31N 46°06' W 122°56'0 0.7
2018-Oct-22 09:03N 46°06' W 122°56'0 6.0
2018-Oct-22 09:00N 46°06' W 122°56'0 0.3
2018-Oct-22 08:31N 46°06' W 122°56'0 1.0
2018-Oct-22 08:04N 46°05' W 122°56'0 0.0
2018-Oct-22 08:01N 46°05' W 122°56'0 0.1
2018-Oct-22 07:31N 46°05' W 122°56'1 2.1
2018-Oct-22 06:59N 46°06' W 122°55'0 0.0
2018-Oct-21 00:19N 46°06' W 122°55'1 3.9
2018-Oct-21 00:03N 46°06' W 122°56'0 0.0
2018-Oct-21 00:00N 46°06' W 122°56'2 4.3
2018-Oct-20 23:31N 46°05' W 122°54'4 8.2
2018-Oct-20 23:03N 46°01' W 122°52'0 8.3
2018-Oct-20 23:00N 46°01' W 122°52'4 7.8
2018-Oct-20 22:30N 45°57' W 122°49'3 7.3
2018-Oct-20 22:03N 45°54' W 122°48'0 7.2
2018-Oct-20 22:00N 45°54' W 122°48'4 7.1
2018-Oct-20 21:30N 45°50' W 122°47'3 6.0
2018-Oct-20 21:03N 45°48' W 122°47'0 6.9
2018-Oct-20 21:00N 45°47' W 122°47'3 7.0
2018-Oct-20 20:30N 45°44' W 122°46'3 7.5
2018-Oct-20 20:03N 45°41' W 122°46'0 7.5
2018-Oct-20 20:00N 45°40' W 122°46'4 7.9
2018-Oct-20 19:29N 45°38' W 122°42'2 5.6
2018-Oct-20 19:03N 45°37' W 122°39'0 8.9
2018-Oct-20 19:00N 45°36' W 122°38'5 9.2
2018-Oct-20 18:30N 45°35' W 122°32'4 9.0
2018-Oct-20 18:03N 45°34' W 122°26'0 9.0
2018-Oct-20 18:00N 45°34' W 122°25'4 8.3
2018-Oct-20 17:30N 45°33' W 122°20'4 8.4
2018-Oct-20 17:03N 45°33' W 122°14'0 8.3
2018-Oct-20 17:00N 45°33' W 122°14'4 8.8
2018-Oct-20 16:30N 45°35' W 122°08'4 8.3
2018-Oct-20 16:03N 45°36' W 122°03'0 8.3
2018-Oct-20 16:00N 45°37' W 122°02'6 5.0
2018-Oct-20 14:44N 45°39' W 121°54'  
2018-Oct-16 21:22N 45°37' W 122°01'2 4.8
2018-Oct-16 21:01N 45°36' W 122°03'1 6.0
2018-Oct-16 20:55N 45°36' W 122°04'3 5.9
2018-Oct-16 20:29N 45°35' W 122°07'2 5.6
2018-Oct-16 20:03N 45°35' W 122°10'0 5.5
2018-Oct-16 20:00N 45°35' W 122°11'3 5.6
2018-Oct-16 19:30N 45°33' W 122°14'2 5.4
2018-Oct-16 19:03N 45°33' W 122°17'0 5.4
2018-Oct-16 19:00N 45°33' W 122°18'3 5.2
2018-Oct-16 18:30N 45°34' W 122°21'2 4.6
2018-Oct-16 18:03N 45°34' W 122°24'0 5.5
2018-Oct-16 17:58N 45°34' W 122°25'2 5.1
2018-Oct-16 17:29N 45°35' W 122°28'2 5.8
2018-Oct-16 17:03N 45°35' W 122°31'0 6.0
2018-Oct-16 17:00N 45°35' W 122°32'3 5.6
2018-Oct-16 16:30N 45°36' W 122°36'3 6.0
2018-Oct-16 16:03N 45°37' W 122°39'0 5.8
2018-Oct-16 16:00N 45°37' W 122°40'3 5.0
2018-Oct-16 15:30N 45°38' W 122°43'2 5.0
2018-Oct-16 15:03N 45°39' W 122°46'0 6.7
2018-Oct-16 15:00N 45°40' W 122°46'3 6.2
2018-Oct-16 14:31N 45°43' W 122°46'3 6.2
2018-Oct-16 14:00N 45°46' W 122°46'3 6.2
2018-Oct-16 13:30N 45°49' W 122°48'3 5.8
2018-Oct-16 13:00N 45°51' W 122°47'3 5.2
2018-Oct-16 12:29N 45°54' W 122°48'0 0.7
2018-Oct-16 12:03N 45°54' W 122°49'0 1.3
2018-Oct-16 12:00N 45°54' W 122°49'0 0.0
2018-Oct-16 11:30N 45°54' W 122°49'3 6.7
2018-Oct-16 11:03N 45°57' W 122°49'0 7.6
2018-Oct-16 11:00N 45°58' W 122°49'3 5.7
2018-Oct-16 10:30N 46°00' W 122°51'3 7.3
2018-Oct-16 10:03N 46°03' W 122°53'0 7.4
2018-Oct-16 10:00N 46°03' W 122°53'3 6.0
2018-Oct-16 09:30N 46°06' W 122°56'0 0.4
2018-Oct-16 09:03N 46°06' W 122°55'0 0.0
2018-Oct-16 09:00N 46°06' W 122°55'0 0.0
2018-Oct-16 08:30N 46°06' W 122°55'0 0.0
2018-Oct-16 08:03N 46°06' W 122°55'0 0.0
2018-Oct-16 08:00N 46°06' W 122°55'0 0.0
2018-Oct-16 07:25N 46°06' W 122°55'0 0.0
2018-Oct-16 06:59N 46°06' W 122°55'0 0.0
2018-Oct-16 06:30N 46°06' W 122°55'0 0.0
2018-Oct-16 06:03N 46°06' W 122°55'0 0.0
2018-Oct-16 06:00N 46°06' W 122°55'0 0.0
2018-Oct-16 05:30N 46°06' W 122°55'0 0.0
2018-Oct-16 05:03N 46°06' W 122°55'0 0.0
2018-Oct-16 05:00N 46°06' W 122°55'0 1.0
2018-Oct-16 04:30N 46°06' W 122°56'1 1.1
2018-Oct-16 04:03N 46°06' W 122°55'0 5.3
2018-Oct-16 04:00N 46°06' W 122°56'4 7.9
2018-Oct-16 03:28N 46°02' W 122°53'4 9.0
2018-Oct-16 03:03N 45°59' W 122°50'0 8.8
2018-Oct-16 03:00N 45°59' W 122°50'4 8.5
2018-Oct-16 02:30N 45°54' W 122°49'0 0.0
2018-Oct-16 02:01N 45°54' W 122°49'0 0.0
2018-Oct-16 02:00N 45°54' W 122°49'0 0.0
2018-Oct-16 01:30N 45°54' W 122°49'0 0.0
2018-Oct-16 01:03N 45°54' W 122°49'0 0.0
2018-Oct-16 01:00N 45°54' W 122°49'0 0.0
2018-Oct-16 00:30N 45°54' W 122°49'0 0.0
2018-Oct-16 00:03N 45°54' W 122°49'0 0.0
2018-Oct-16 00:00N 45°54' W 122°49'0 0.0
2018-Oct-15 23:30N 45°54' W 122°49'0 0.0
2018-Oct-15 23:03N 45°54' W 122°49'0 0.0
2018-Oct-15 23:00N 45°54' W 122°49'0 0.0
2018-Oct-15 22:30N 45°54' W 122°49'0 0.0
2018-Oct-15 22:03N 45°54' W 122°49'0 0.0
2018-Oct-15 22:00N 45°54' W 122°49'0 0.0
2018-Oct-15 21:30N 45°54' W 122°49'0 0.0
2018-Oct-15 21:03N 45°54' W 122°49'0 0.0
2018-Oct-15 21:00N 45°54' W 122°49'0 0.0
2018-Oct-15 20:30N 45°54' W 122°49'0 0.0
2018-Oct-15 20:03N 45°54' W 122°49'0 0.0
2018-Oct-15 20:00N 45°54' W 122°49'0 0.0
2018-Oct-15 19:30N 45°54' W 122°49'0 0.0
2018-Oct-15 19:03N 45°54' W 122°49'0 0.1
2018-Oct-15 19:00N 45°54' W 122°49'0 0.0
2018-Oct-15 18:30N 45°54' W 122°49'0 0.0
2018-Oct-15 17:38N 45°54' W 122°49'0 0.0
2018-Oct-15 17:17N 45°54' W 122°49'0 0.0
2018-Oct-15 17:03N 45°54' W 122°49'0 0.1
2018-Oct-15 17:00N 45°54' W 122°49'0 0.0
2018-Oct-15 16:30N 45°54' W 122°49'0 0.0
2018-Oct-15 16:03N 45°54' W 122°49'0 0.0
2018-Oct-15 16:00N 45°54' W 122°49'0 0.0
2018-Oct-15 15:30N 45°54' W 122°49'0 0.0
2018-Oct-15 15:03N 45°54' W 122°49'0 0.0
2018-Oct-15 15:00N 45°54' W 122°49'0 0.0
2018-Oct-15 14:30N 45°54' W 122°49'0 0.0
2018-Oct-15 14:00N 45°54' W 122°49'0 0.0
2018-Oct-15 13:24N 45°54' W 122°49'0 0.0
2018-Oct-15 13:00N 45°54' W 122°49'0 0.0
2018-Oct-15 12:30N 45°54' W 122°49'0 0.0
2018-Oct-15 12:03N 45°54' W 122°49'0 0.0
2018-Oct-15 12:00N 45°54' W 122°49'0 0.0
2018-Oct-15 11:30N 45°54' W 122°49'0 0.0
2018-Oct-15 11:03N 45°54' W 122°49'0 0.0
2018-Oct-15 11:00N 45°54' W 122°49'0 0.0
2018-Oct-15 10:30N 45°54' W 122°49'0 0.0
2018-Oct-15 10:03N 45°54' W 122°49'0 1.1
2018-Oct-15 10:00N 45°54' W 122°49'3 6.0
2018-Oct-15 09:30N 45°57' W 122°49'3 7.4
2018-Oct-15 09:03N 46°00' W 122°51'0 7.6
2018-Oct-15 09:00N 46°01' W 122°51'5 7.1
2018-Oct-15 08:22N 46°05' W 122°54'2 6.2
2018-Oct-15 08:04N 46°06' W 122°56'0 0.1
2018-Oct-15 08:00N 46°06' W 122°56'1 2.2
2018-Oct-15 07:30N 46°06' W 122°55'1 0.2
2018-Oct-15 02:14N 46°06' W 122°56'0 1.2
2018-Oct-15 02:03N 46°06' W 122°56'0 2.4
2018-Oct-15 02:00N 46°06' W 122°56'0 0.3
2018-Oct-15 01:30N 46°06' W 122°56'  

Dump ship's entire track history